createdAt,value
2018-11-25T00:00:12.101Z,34.37
2018-11-25T00:02:40.987Z,26.13
2018-11-25T00:05:10.227Z,27.13
2018-11-25T00:07:39.082Z,29.40
2018-11-25T00:10:08.057Z,28.30
2018-11-25T00:12:36.975Z,29.27
2018-11-25T00:15:07.811Z,29.63
2018-11-25T00:17:36.958Z,25.53
2018-11-25T00:20:10.271Z,26.53
2018-11-25T00:22:39.145Z,26.50
2018-11-25T00:25:09.728Z,26.30
2018-11-25T00:27:38.744Z,29.27
2018-11-25T00:30:12.890Z,24.93
2018-11-25T00:32:41.847Z,44.33
2018-11-25T00:35:15.700Z,31.07
2018-11-25T00:37:48.575Z,32.37
2018-11-25T00:40:15.243Z,34.27
2018-11-25T00:42:44.800Z,34.17
2018-11-25T00:45:16.959Z,40.30
2018-11-25T00:47:45.955Z,103.53
2018-11-25T00:50:15.108Z,53.80
2018-11-25T00:52:44.011Z,70.50
2018-11-25T00:55:14.840Z,105.63
2018-11-25T00:57:43.712Z,144.30
2018-11-25T01:00:14.736Z,134.37
2018-11-25T01:02:43.707Z,211.37
2018-11-25T01:05:12.680Z,235.77
2018-11-25T01:07:41.576Z,82.50
2018-11-25T01:10:12.840Z,123.10
2018-11-25T01:12:41.767Z,89.63
2018-11-25T01:15:12.584Z,103.10
2018-11-25T01:17:41.526Z,88.37
2018-11-25T01:20:18.335Z,208.03
2018-11-25T01:22:47.315Z,204.47
2018-11-25T01:25:16.199Z,177.07
2018-11-25T01:27:45.127Z,81.57
2018-11-25T01:30:15.058Z,233.23
2018-11-25T01:32:43.966Z,95.43
2018-11-25T01:35:13.274Z,323.97
2018-11-25T01:37:42.248Z,195.20
2018-11-25T01:40:12.353Z,122.97
2018-11-25T01:42:41.267Z,256.07
2018-11-25T01:45:11.549Z,202.40
2018-11-25T01:47:40.441Z,142.27
2018-11-25T01:50:14.463Z,256.10
2018-11-25T01:52:43.504Z,250.23
2018-11-25T01:55:13.550Z,312.40
2018-11-25T01:57:42.415Z,145.93
2018-11-25T02:00:13.287Z,133.30
2018-11-25T02:02:42.182Z,119.70
2018-11-25T02:05:11.104Z,90.00
2018-11-25T02:07:40.042Z,136.80
2018-11-25T02:10:11.547Z,137.50
2018-11-25T02:12:40.424Z,254.67
2018-11-25T02:15:10.738Z,117.23
2018-11-25T02:17:39.715Z,186.80
2018-11-25T02:20:11.996Z,76.37
2018-11-25T02:22:40.926Z,125.97
2018-11-25T02:25:09.823Z,50.90
2018-11-25T02:27:38.753Z,178.20
2018-11-25T02:30:14.820Z,95.63
2018-11-25T02:32:43.797Z,100.40
2018-11-25T02:35:13.400Z,132.90
2018-11-25T02:37:42.304Z,270.27
2018-11-25T02:40:12.086Z,351.07
2018-11-25T02:42:40.967Z,179.07
2018-11-25T02:45:14.888Z,164.37
2018-11-25T02:47:43.809Z,194.63
2018-11-25T02:50:31.098Z,188.67
2018-11-25T02:53:06.583Z,243.33
2018-11-25T02:55:35.619Z,316.70
2018-11-25T02:58:04.831Z,131.87
2018-11-25T03:00:34.074Z,145.33
2018-11-25T03:03:03.183Z,77.63
2018-11-25T03:05:32.101Z,249.93
2018-11-25T03:08:01.101Z,250.20
2018-11-25T03:10:29.994Z,79.97
2018-11-25T03:12:58.913Z,147.23
2018-11-25T03:15:28.030Z,46.73
2018-11-25T03:17:56.900Z,57.87
2018-11-25T03:20:25.824Z,75.27
2018-11-25T03:22:54.762Z,312.03
2018-11-25T03:25:23.632Z,131.07
2018-11-25T03:27:52.564Z,96.63
2018-11-25T03:30:21.787Z,78.17
2018-11-25T03:32:53.682Z,159.63
2018-11-25T03:35:22.893Z,190.73
2018-11-25T03:37:51.869Z,136.33
2018-11-25T03:40:20.820Z,92.97
2018-11-25T03:42:49.863Z,110.43
2018-11-25T03:45:19.846Z,132.03
2018-11-25T03:47:48.763Z,141.90
2018-11-25T03:50:17.714Z,63.13
2018-11-25T03:52:47.709Z,77.10
2018-11-25T03:55:17.866Z,68.07
2018-11-25T03:57:47.368Z,36.90
2018-11-25T04:00:18.895Z,93.33
2018-11-25T04:02:48.135Z,77.80
2018-11-25T04:05:17.662Z,142.00
2018-11-25T04:07:46.599Z,74.00
2018-11-25T04:10:17.472Z,58.97
2018-11-25T04:12:46.412Z,71.53
2018-11-25T04:15:16.279Z,129.63
2018-11-25T04:17:45.386Z,79.23
2018-11-25T04:20:18.960Z,43.23
2018-11-25T04:22:48.096Z,36.73
2018-11-25T04:25:17.138Z,91.33
2018-11-25T04:27:46.136Z,21.13
2018-11-25T04:30:16.813Z,29.07
2018-11-25T04:32:46.802Z,46.93
2018-11-25T04:35:15.742Z,78.17
2018-11-25T04:37:44.723Z,130.07
2018-11-25T04:40:15.392Z,55.17
2018-11-25T04:42:44.397Z,93.97
2018-11-25T04:45:15.255Z,66.23
2018-11-25T04:47:44.843Z,61.17
2018-11-25T04:50:17.823Z,63.83
2018-11-25T04:52:46.876Z,55.93
2018-11-25T04:55:15.911Z,87.90
2018-11-25T04:57:52.753Z,24.10
2018-11-25T05:00:21.789Z,106.10
2018-11-25T05:02:51.346Z,47.30
2018-11-25T05:05:20.336Z,69.30
2018-11-25T05:07:49.278Z,104.90
2018-11-25T05:10:18.591Z,59.83
2018-11-25T05:12:47.510Z,103.83
2018-11-25T05:15:20.257Z,43.70
2018-11-25T05:17:49.367Z,86.60
2018-11-25T05:20:19.025Z,67.10
2018-11-25T05:22:48.066Z,58.70
2018-11-25T05:25:17.958Z,103.80
2018-11-25T05:27:46.850Z,71.40
2018-11-25T05:30:18.597Z,61.30
2018-11-25T05:32:47.604Z,118.83
2018-11-25T05:35:18.185Z,52.30
2018-11-25T05:37:47.151Z,126.07
2018-11-25T05:40:16.539Z,69.07
2018-11-25T05:42:45.627Z,109.70
2018-11-25T05:45:18.483Z,107.90
2018-11-25T05:47:47.555Z,75.33
2018-11-25T05:50:17.244Z,53.13
2018-11-25T05:52:46.153Z,83.27
2018-11-25T05:55:15.071Z,88.23
2018-11-25T05:57:44.017Z,196.43
2018-11-25T06:00:16.197Z,105.33
2018-11-25T06:02:45.211Z,113.20
2018-11-25T06:05:14.485Z,44.57
2018-11-25T06:07:43.399Z,70.43
2018-11-25T06:10:13.239Z,91.83
2018-11-25T06:12:42.294Z,72.70
2018-11-25T06:15:13.222Z,112.53
2018-11-25T06:17:42.264Z,121.43
2018-11-25T06:20:14.016Z,163.47
2018-11-25T06:22:43.029Z,72.10
2018-11-25T06:25:13.227Z,112.27
2018-11-25T06:27:42.195Z,86.20
2018-11-25T06:30:12.471Z,162.73
2018-11-25T06:32:41.461Z,74.33
2018-11-25T06:35:11.559Z,161.27
2018-11-25T06:37:42.544Z,140.97
2018-11-25T06:40:15.455Z,41.37
2018-11-25T06:42:44.555Z,141.73
2018-11-25T06:45:18.902Z,164.37
2018-11-25T06:47:47.826Z,214.90
2018-11-25T06:50:16.757Z,291.63
2018-11-25T06:52:45.626Z,270.20
2018-11-25T06:55:14.554Z,195.93
2018-11-25T06:57:43.530Z,116.10
2018-11-25T07:00:16.673Z,125.43
2018-11-25T07:02:45.638Z,153.30
2018-11-25T07:05:14.654Z,115.83
2018-11-25T07:07:43.695Z,50.77
2018-11-25T07:10:13.867Z,126.23
2018-11-25T07:12:42.830Z,150.97
2018-11-25T07:15:16.332Z,75.10
2018-11-25T07:17:45.646Z,47.90
2018-11-25T07:20:17.917Z,127.23
2018-11-25T07:23:05.736Z,82.23
2018-11-25T07:25:34.985Z,65.03
2018-11-25T07:28:18.034Z,61.37
2018-11-25T07:30:33.865Z,69.43
2018-11-25T07:33:03.232Z,78.50
2018-11-25T07:35:32.435Z,95.57
2018-11-25T07:38:09.192Z,67.97
2018-11-25T07:40:41.133Z,75.33
2018-11-25T07:43:12.352Z,52.77
2018-11-25T07:45:41.334Z,95.87
2018-11-25T07:48:10.283Z,30.03
2018-11-25T07:50:39.229Z,24.53
2018-11-25T07:53:08.123Z,75.23
2018-11-25T07:55:37.413Z,167.23
2018-11-25T07:58:06.640Z,170.70
2018-11-25T08:00:35.780Z,77.97
2018-11-25T08:03:05.150Z,216.33
2018-11-25T08:05:34.555Z,67.60
2018-11-25T08:08:03.871Z,38.27
2018-11-25T08:10:33.034Z,66.77
2018-11-25T08:13:02.128Z,169.03
2018-11-25T08:15:31.218Z,72.63
2018-11-25T08:18:00.381Z,66.97
2018-11-25T08:20:29.583Z,44.73
2018-11-25T08:22:58.668Z,65.87
2018-11-25T08:25:33.054Z,66.63
2018-11-25T08:28:02.268Z,47.13
2018-11-25T08:30:31.460Z,50.47
2018-11-25T08:33:00.526Z,60.40
2018-11-25T08:39:42.249Z,84.07
2018-11-25T08:42:11.150Z,73.90
2018-11-25T08:44:40.123Z,128.00
2018-11-25T08:47:09.081Z,60.13
2018-11-25T08:49:38.016Z,105.80
2018-11-25T08:52:06.973Z,152.17
2018-11-25T08:54:35.996Z,111.80
2018-11-25T08:57:04.979Z,136.80
2018-11-25T08:59:33.906Z,94.33
2018-11-25T09:02:02.803Z,87.73
2018-11-25T09:04:31.777Z,100.17
2018-11-25T09:07:00.683Z,44.27
2018-11-25T09:09:30.415Z,46.17
2018-11-25T09:11:58.478Z,53.60
2018-11-25T09:14:27.530Z,43.50
2018-11-25T09:16:56.519Z,58.07
2018-11-25T09:19:25.484Z,37.67
2018-11-25T09:21:54.542Z,49.60
2018-11-25T09:24:23.444Z,37.43
2018-11-25T09:26:52.328Z,52.17
2018-11-25T09:29:21.302Z,40.50
2018-11-25T09:31:50.206Z,57.27
2018-11-25T09:34:19.125Z,44.30
2018-11-25T09:36:48.110Z,50.23
2018-11-25T09:39:16.988Z,53.50
2018-11-25T09:41:45.875Z,39.30
2018-11-25T09:44:14.824Z,49.97
2018-11-25T09:46:43.715Z,49.27
2018-11-25T09:49:12.620Z,35.13
2018-11-25T09:51:41.616Z,31.77
2018-11-25T09:54:10.523Z,48.38
2018-11-25T09:56:39.483Z,39.90
2018-11-25T09:59:08.415Z,41.93
2018-11-25T10:01:37.339Z,30.90
2018-11-25T10:04:06.386Z,36.80
2018-11-25T10:06:35.281Z,32.70
2018-11-25T10:09:05.724Z,27.20
2018-11-25T10:11:34.669Z,42.97
2018-11-25T10:14:03.623Z,39.90
2018-11-25T10:16:32.525Z,39.33
2018-11-25T10:19:01.451Z,38.27
2018-11-25T10:21:30.355Z,36.17
2018-11-25T10:23:59.215Z,37.33
2018-11-25T10:26:28.215Z,31.23
2018-11-25T10:28:57.122Z,36.47
2018-11-25T10:31:26.016Z,33.87
2018-11-25T10:33:54.915Z,38.17
2018-11-25T10:36:23.792Z,32.27
2018-11-25T10:38:52.747Z,35.17
2018-11-25T10:41:21.656Z,39.57
2018-11-25T10:43:50.540Z,31.67
2018-11-25T10:46:20.689Z,34.93
2018-11-25T10:48:49.599Z,47.93
2018-11-25T10:51:18.514Z,50.93
2018-11-25T10:53:47.371Z,45.63
2018-11-25T10:56:16.880Z,41.80
2018-11-25T10:58:45.183Z,30.50
2018-11-25T11:01:20.008Z,26.33
2018-11-25T11:03:55.051Z,28.23
2018-11-25T11:06:29.631Z,31.53
2018-11-25T11:08:58.630Z,27.13
2018-11-25T11:11:27.535Z,30.13
2018-11-25T11:13:56.453Z,31.30
2018-11-25T11:16:25.399Z,24.37
2018-11-25T11:18:54.316Z,23.23
2018-11-25T11:21:23.267Z,23.13
2018-11-25T11:23:52.199Z,33.93
2018-11-25T11:26:25.470Z,29.67
2018-11-25T11:28:54.463Z,28.30
2018-11-25T11:31:23.458Z,26.67
2018-11-25T11:33:52.475Z,26.20
2018-11-25T11:36:21.448Z,35.05
2018-11-25T11:38:50.377Z,28.77
2018-11-25T11:41:19.428Z,30.70
2018-11-25T11:43:48.420Z,33.80
2018-11-25T11:46:17.319Z,36.03
2018-11-25T11:48:46.363Z,29.53
2018-11-25T11:51:15.385Z,34.17
2018-11-25T11:53:44.347Z,28.70
2018-11-25T11:56:13.361Z,31.07
2018-11-25T11:58:56.160Z,23.30
2018-11-25T12:01:40.574Z,22.17
2018-11-25T12:04:11.712Z,25.67
2018-11-25T12:06:41.576Z,23.37
2018-11-25T12:09:10.950Z,23.60
2018-11-25T12:11:39.831Z,23.80
2018-11-25T12:14:08.712Z,25.67
2018-11-25T12:16:37.635Z,26.43
2018-11-25T12:19:06.616Z,26.57
2018-11-25T12:21:35.531Z,30.97
2018-11-25T12:24:04.487Z,29.17
2018-11-25T12:26:33.447Z,30.80
2018-11-25T12:29:02.440Z,33.07
2018-11-25T12:31:31.432Z,33.97
2018-11-25T12:34:00.531Z,31.50
2018-11-25T12:36:29.719Z,31.57
2018-11-25T12:38:58.918Z,31.80
2018-11-25T12:41:28.233Z,32.17
2018-11-25T12:43:57.170Z,29.77
2018-11-25T12:46:26.116Z,28.90
2018-11-25T12:48:55.107Z,28.93
2018-11-25T12:51:24.227Z,28.17
2018-11-25T12:53:53.255Z,30.40
2018-11-25T12:56:22.263Z,28.17
2018-11-25T12:58:51.244Z,30.67
2018-11-25T13:01:20.232Z,30.70
2018-11-25T13:03:49.252Z,29.17
2018-11-25T13:06:18.173Z,33.03
2018-11-25T13:08:47.220Z,31.87
2018-11-25T13:11:16.185Z,30.20
2018-11-25T13:13:45.315Z,30.87
2018-11-25T13:16:14.506Z,34.03
2018-11-25T13:18:43.615Z,35.70
2018-11-25T13:21:12.699Z,32.53
2018-11-25T13:23:43.195Z,30.37
2018-11-25T13:26:10.773Z,32.20
2018-11-25T13:28:39.751Z,34.43
2018-11-25T13:31:08.794Z,33.73
2018-11-25T13:33:37.870Z,39.17
2018-11-25T13:36:08.771Z,32.20
2018-11-25T13:38:37.856Z,29.83
2018-11-25T13:41:07.528Z,30.57
2018-11-25T13:43:36.555Z,30.47
2018-11-25T13:46:05.734Z,31.17
2018-11-25T13:48:34.876Z,31.27
2018-11-25T13:51:08.197Z,27.03
2018-11-25T13:53:37.383Z,26.77
2018-11-25T13:56:06.725Z,28.27
2018-11-25T13:58:35.727Z,31.15
2018-11-25T14:01:05.436Z,27.40
2018-11-25T14:03:37.233Z,32.03
2018-11-25T14:06:09.868Z,31.33
2018-11-25T14:08:39.820Z,33.27
2018-11-25T14:11:10.447Z,33.07
2018-11-25T14:13:39.463Z,41.23
2018-11-25T14:16:11.175Z,46.53
2018-11-25T14:18:40.132Z,34.60
2018-11-25T14:21:09.189Z,43.50
2018-11-25T14:23:38.135Z,40.40
2018-11-25T14:26:10.721Z,42.37
2018-11-25T14:28:40.292Z,40.78
2018-11-25T14:31:09.363Z,39.07
2018-11-25T14:33:38.385Z,35.67
2018-11-25T14:36:07.400Z,36.20
2018-11-25T14:38:36.569Z,32.57
2018-11-25T14:41:05.633Z,36.57
2018-11-25T14:43:34.997Z,23.30
2018-11-25T14:46:04.073Z,22.27
2018-11-25T14:48:33.104Z,27.50
2018-11-25T14:51:02.251Z,27.80
2018-11-25T14:53:31.398Z,28.63
2018-11-25T14:56:00.480Z,29.50
2018-11-25T14:58:29.793Z,23.07
2018-11-25T15:00:58.899Z,24.60
2018-11-25T15:03:28.032Z,23.83
2018-11-25T15:05:57.191Z,27.17
2018-11-25T15:08:27.611Z,24.70
2018-11-25T15:10:56.788Z,26.60
2018-11-25T15:13:26.074Z,23.57
2018-11-25T15:15:59.380Z,28.20
2018-11-25T15:18:28.259Z,25.07
2018-11-25T15:20:57.283Z,25.20
2018-11-25T15:23:26.267Z,26.03
2018-11-25T15:25:55.717Z,29.03
2018-11-25T15:28:24.672Z,28.50
2018-11-25T15:30:53.761Z,26.85
2018-11-25T15:33:22.870Z,25.50
2018-11-25T15:35:51.852Z,26.60
2018-11-25T15:38:20.825Z,32.40
2018-11-25T15:40:50.219Z,27.20
2018-11-25T15:43:19.191Z,31.70
2018-11-25T15:45:48.195Z,29.13
2018-11-25T15:48:20.163Z,33.65
2018-11-25T15:50:49.242Z,30.17
2018-11-25T15:53:18.289Z,25.53
2018-11-25T15:55:48.987Z,30.03
2018-11-25T15:58:17.961Z,24.47
2018-11-25T16:00:46.971Z,23.62
2018-11-25T16:03:15.979Z,27.30
2018-11-25T16:05:50.040Z,29.37
2018-11-25T16:08:18.939Z,32.03
2018-11-25T16:10:47.948Z,29.13
2018-11-25T16:13:16.995Z,28.07
2018-11-25T16:15:46.165Z,27.00
2018-11-25T16:18:15.147Z,26.00
2018-11-25T16:20:44.200Z,23.40
2018-11-25T16:23:13.225Z,26.90
2018-11-25T16:25:50.196Z,24.23
2018-11-25T16:28:36.061Z,28.47
2018-11-25T16:31:05.627Z,26.83
2018-11-25T16:33:34.768Z,25.93
2018-11-25T16:36:04.286Z,25.93
2018-11-25T16:38:33.635Z,27.33
2018-11-25T16:41:02.591Z,25.00
2018-11-25T16:43:31.627Z,28.17
2018-11-25T16:46:00.697Z,27.87
2018-11-25T16:48:29.736Z,30.93
2018-11-25T16:50:58.703Z,34.83
2018-11-25T16:53:27.665Z,38.87
2018-11-25T16:55:56.670Z,32.73
2018-11-25T16:58:25.668Z,29.53
2018-11-25T17:00:54.649Z,26.77
2018-11-25T17:03:23.634Z,32.13
2018-11-25T17:05:53.235Z,30.13
2018-11-25T17:08:25.326Z,30.70
2018-11-25T17:10:54.280Z,28.97
2018-11-25T17:13:23.235Z,27.10
2018-11-25T17:15:52.175Z,28.33
2018-11-25T17:18:21.178Z,27.77
2018-11-25T17:20:50.194Z,30.37
2018-11-25T17:23:19.207Z,27.20
2018-11-25T17:25:48.192Z,30.47
2018-11-25T17:28:17.191Z,31.43
2018-11-25T17:30:46.115Z,42.33
2018-11-25T17:33:15.097Z,37.63
2018-11-25T17:35:43.996Z,39.33
2018-11-25T17:38:12.960Z,25.43
2018-11-25T17:40:41.987Z,28.80
2018-11-25T17:43:19.386Z,29.33
2018-11-25T17:45:48.482Z,28.03
2018-11-25T17:48:17.883Z,26.77
2018-11-25T17:50:46.873Z,27.33
2018-11-25T17:53:20.627Z,27.50
2018-11-25T17:55:44.815Z,27.57
2018-11-25T17:58:13.782Z,27.53
2018-11-25T18:00:45.827Z,27.43
2018-11-25T18:03:21.387Z,24.10
2018-11-25T18:05:50.583Z,26.80
2018-11-25T18:08:19.569Z,26.60
2018-11-25T18:10:48.534Z,28.52
2018-11-25T18:13:18.929Z,28.20
2018-11-25T18:15:48.170Z,29.17
2018-11-25T18:18:20.559Z,31.67
2018-11-25T18:20:53.847Z,26.93
2018-11-25T18:23:23.070Z,28.17
2018-11-25T18:25:52.146Z,30.40
2018-11-25T18:28:21.429Z,28.40
2018-11-25T18:30:50.440Z,30.00
2018-11-25T18:33:19.457Z,29.40
2018-11-25T18:35:48.630Z,31.03
2018-11-25T18:38:17.961Z,30.30
2018-11-25T18:40:47.082Z,34.00
2018-11-25T18:43:16.151Z,30.30
2018-11-25T18:45:45.131Z,33.57
2018-11-25T18:48:15.267Z,30.60
2018-11-25T18:50:44.467Z,32.70
2018-11-25T18:53:13.742Z,32.73
2018-11-25T18:55:41.636Z,32.50
2018-11-25T18:58:10.883Z,33.37
2018-11-25T19:00:53.853Z,32.43
2018-11-25T19:03:23.191Z,32.03
2018-11-25T19:05:52.404Z,29.80
2018-11-25T19:08:21.601Z,35.23
2018-11-25T19:10:50.974Z,33.90
2018-11-25T19:13:20.069Z,33.83
2018-11-25T19:15:49.165Z,30.47
2018-11-25T19:18:18.387Z,29.83
2018-11-25T19:20:47.529Z,30.70
2018-11-25T19:23:16.766Z,33.70
2018-11-25T19:25:45.805Z,26.87
2018-11-25T19:28:14.951Z,29.63
2018-11-25T19:30:44.374Z,30.77
2018-11-25T19:33:13.597Z,27.17
2018-11-25T19:35:42.771Z,28.13
2018-11-25T19:38:11.849Z,31.60
2018-11-25T19:40:41.110Z,30.13
2018-11-25T19:43:10.364Z,28.60
2018-11-25T19:45:39.559Z,27.23
2018-11-25T19:48:08.844Z,32.57
2018-11-25T19:50:38.872Z,28.73
2018-11-25T19:53:10.760Z,31.30
2018-11-25T19:55:40.648Z,24.50
2018-11-25T19:58:09.839Z,25.17
2018-11-25T20:00:39.245Z,26.87
2018-11-25T20:03:08.579Z,24.70
2018-11-25T20:05:38.063Z,24.63
2018-11-25T20:08:08.053Z,24.03
2018-11-25T20:10:37.349Z,21.70
2018-11-25T20:13:08.365Z,21.60
2018-11-25T20:15:38.225Z,27.00
2018-11-25T20:18:09.273Z,22.10
2018-11-25T20:20:38.965Z,20.67
2018-11-25T20:23:08.435Z,23.53
2018-11-25T20:25:37.511Z,22.07
2018-11-25T20:28:06.677Z,22.53
2018-11-25T20:30:36.021Z,19.97
2018-11-25T20:33:10.474Z,20.73
2018-11-25T20:35:39.856Z,23.47
2018-11-25T20:38:14.431Z,18.70
2018-11-25T20:40:43.746Z,21.20
2018-11-25T20:43:12.956Z,20.77
2018-11-25T20:45:47.571Z,21.30
2018-11-25T20:48:16.903Z,26.70
2018-11-25T20:50:46.069Z,25.67
2018-11-25T20:53:20.857Z,25.00
2018-11-25T20:55:50.521Z,23.83
2018-11-25T20:58:19.603Z,21.33
2018-11-25T21:00:48.815Z,20.68
2018-11-25T21:03:17.934Z,20.97
2018-11-25T21:05:47.233Z,21.17
2018-11-25T21:08:16.674Z,21.23
2018-11-25T21:10:45.787Z,20.13
2018-11-25T21:13:14.999Z,22.37
2018-11-25T21:15:44.129Z,21.97
2018-11-25T21:18:13.298Z,20.43
2018-11-25T21:20:50.849Z,20.03
2018-11-25T21:23:12.088Z,21.07
2018-11-25T21:25:41.359Z,19.33
2018-11-25T21:28:10.698Z,17.53
2018-11-25T21:30:39.837Z,18.80
2018-11-25T21:33:09.081Z,15.50
2018-11-25T21:35:38.259Z,15.53
2018-11-25T21:38:07.283Z,18.20
2018-11-25T21:40:36.536Z,17.97
2018-11-25T21:43:05.723Z,17.87
2018-11-25T21:45:35.278Z,15.07
2018-11-25T21:48:04.520Z,17.87
2018-11-25T21:50:33.662Z,15.40
2018-11-25T21:53:02.996Z,16.60
2018-11-25T21:55:32.335Z,19.30
2018-11-25T21:58:01.634Z,19.80
2018-11-25T22:00:30.877Z,18.03
2018-11-25T22:02:59.851Z,15.77
2018-11-25T22:05:29.981Z,17.27
2018-11-25T22:07:59.274Z,16.40
2018-11-25T22:10:28.183Z,18.67
2018-11-25T22:12:57.471Z,20.83
2018-11-25T22:15:26.972Z,13.87
2018-11-25T22:17:56.298Z,16.93
2018-11-25T22:20:25.285Z,17.83
2018-11-25T22:22:54.262Z,18.30
2018-11-25T22:25:23.272Z,22.50
2018-11-25T22:27:52.903Z,15.93
2018-11-25T22:30:23.137Z,18.57
2018-11-25T22:32:52.215Z,18.40
2018-11-25T22:35:22.397Z,21.73
2018-11-25T22:37:51.455Z,22.67
2018-11-25T22:40:20.735Z,24.47
2018-11-25T22:42:50.539Z,18.70
2018-11-25T22:45:20.775Z,26.10
2018-11-25T22:47:49.803Z,20.53
2018-11-25T22:50:19.927Z,20.10
2018-11-25T22:52:49.259Z,24.50
2018-11-25T22:55:22.114Z,21.60
2018-11-25T22:57:51.159Z,26.60
2018-11-25T23:00:31.267Z,24.67
2018-11-25T23:03:00.184Z,20.23
2018-11-25T23:05:40.348Z,25.30
2018-11-25T23:08:09.357Z,18.47
2018-11-25T23:10:38.278Z,19.90
2018-11-25T23:13:07.303Z,22.77
2018-11-25T23:15:36.243Z,22.60
2018-11-25T23:18:05.443Z,30.27
2018-11-25T23:20:34.299Z,23.07
2018-11-25T23:23:03.192Z,24.57
2018-11-25T23:25:32.154Z,28.90
2018-11-25T23:28:01.064Z,27.63
2018-11-25T23:30:30.075Z,19.07
2018-11-25T23:32:59.295Z,25.23
2018-11-25T23:35:29.142Z,25.67
2018-11-25T23:37:58.090Z,24.23
2018-11-25T23:40:27.064Z,21.07
2018-11-25T23:42:55.990Z,25.50
2018-11-25T23:45:24.928Z,25.47
2018-11-25T23:47:53.920Z,22.47
2018-11-25T23:50:22.833Z,25.63
2018-11-25T23:52:51.781Z,25.87
2018-11-25T23:55:20.704Z,24.60
2018-11-25T23:57:51.862Z,21.20
